Aberdeen, Hong Kong

76.5°F / 24.7°C
Scattered Clouds
Heat Index: 77°F / 25°C
Humidity: 91%
Dew Point: 74°F / 23°C
Wind: WSW at 0.2 mph / 0.3 km/h
Wind Gust: 2.5 mph / 4.0 km/h
Pressure: 30.09 in / 1019 hPa (Steady)
Visibility: 6.2 miles / 10.0 kilometers
Clouds: (FEW) : 800 ft / 243 m
Scattered Clouds (SCT) : 2800 ft / 853 m
Yesterday's Maximum: 93.2°F / 34.0°C
Yesterday's Minimum: 65.7°F / 18.7°C
UV: 1.0 out of 16
Sunrise:6:51 AM HKT
Sunset:6:22 PM HKT
Moon Rise:7:10 PM HKT
Moon Set:7:19 AM HKT
Moon Phase Full Moon
NOAA Weather Radio
No local feed.
METAR VHHH 200330Z 14014KT 9999 FEW008 SCT028 25/21 Q1019 NOSIG
As of: 12:01 PM HKT on February 20, 2019
Observed at: Ap Lei Chau South Horizons Phase 1, Hong Kong, Hong Kong

View Station's History

No Yes

Local Satellite

Current Satellite Forecast
Region Default Local
No Yes

View Full Screen WunderMap

Forecast

Current Satellite Forecast
Tuesday
. High: 93° F. / 33° C.

. High: 76° F. / 25° C.

Features

Weather Apps

WunderRadio

Weather Underground Apps
Check out our wide variety of mobile and setup applications.

Weather Underground Applications

Top of Page

© Copyright 2019
The Weather Company, LLC